< Cyclone 200208 2002 Season Cyclone 200210 >
Cyclone 200209 (ERROL)
General InformationTrack Information on Google MapsDetailed Wind InformationList of All Images || ResourceGoogle EarthGE AnimationAtom FeedGeoJSON
Detalied Best Track (Time Zone = UTC)
Year Month Day Hour Lat. Long. Pressure (hPa) Wind (kt) Class Image Chart
2002 5 8 03 -5.2 97.3 1005 19 2 Image --
2002 5 8 06 -5.4 97.2 1005 19 2 Image --
2002 5 8 12 -5.6 97.3 1002 23 2 Image --
2002 5 8 18 -5.7 97.4 1000 27 2 Image --
2002 5 9 00 -5.9 97.5 995 35 3 Image --
2002 5 9 06 -6.5 97.6 995 35 3 Image --
2002 5 9 12 -6.6 97.3 995 35 3 Image --
2002 5 9 18 -6.6 97.1 995 35 3 Image --
2002 5 10 00 -6.4 97.3 998 29 2 Image --
2002 5 10 06 -6.3 97.6 1000 27 2 Image --
2002 5 10 12 -6.5 97.9 1000 27 2 Image --
2002 5 10 18 -6.7 97.7 1000 27 2 Image --
2002 5 11 00 -6.3 97.2 1000 27 2 Image --
2002 5 11 06 -6.1 96.8 998 29 2 Image --
2002 5 11 12 -6.1 96.3 1002 23 2 Image --
2002 5 11 18 -6.2 96.0 1002 23 2 Image --
2002 5 12 00 -6.2 96.2 1002 23 2 Image --
2002 5 12 06 -6.1 95.7 1002 23 2 Image --
2002 5 12 12 -6.9 95.4 1002 23 2 Image --
2002 5 12 18 -7.8 95.4 1002 23 2 Image --
2002 5 13 00 -8.4 95.6 1002 23 2 Image --
2002 5 13 06 -8.7 95.6 1002 23 2 Image --
2002 5 13 12 -8.9 96.0 1002 23 2 Image --
2002 5 13 18 -9.1 96.3 1005 19 2 Image --
2002 5 14 00 -9.5 96.6 1005 19 2 Image --
< Cyclone 200208 2002 Season Cyclone 200210 >

Help